sensor_id;sensor_type;location;lat;lon;timestamp;P1;durP1;ratioP1;P2;durP2;ratioP2
60312;SDS011;46158;52.850;6.970;2024-02-23T00:02:15;0.80;;;0.80;;
60312;SDS011;46158;52.850;6.970;2024-02-23T00:04:40;2.75;;;0.82;;
60312;SDS011;46158;52.850;6.970;2024-02-23T00:07:06;1.60;;;0.60;;
60312;SDS011;46158;52.850;6.970;2024-02-23T00:09:33;1.38;;;0.60;;
60312;SDS011;46158;52.850;6.970;2024-02-23T00:11:59;2.22;;;0.90;;
60312;SDS011;46158;52.850;6.970;2024-02-23T00:14:24;0.90;;;0.70;;
60312;SDS011;46158;52.850;6.970;2024-02-23T00:16:50;0.68;;;0.68;;
60312;SDS011;46158;52.850;6.970;2024-02-23T00:19:16;0.68;;;0.63;;
60312;SDS011;46158;52.850;6.970;2024-02-23T00:21:43;1.10;;;0.60;;
60312;SDS011;46158;52.850;6.970;2024-02-23T00:24:12;1.33;;;0.80;;
60312;SDS011;46158;52.850;6.970;2024-02-23T00:26:38;1.77;;;0.80;;
60312;SDS011;46158;52.850;6.970;2024-02-23T00:29:03;1.25;;;0.90;;
60312;SDS011;46158;52.850;6.970;2024-02-23T00:31:29;0.95;;;0.70;;
60312;SDS011;46158;52.850;6.970;2024-02-23T00:33:55;0.80;;;0.80;;
60312;SDS011;46158;52.850;6.970;2024-02-23T00:36:21;1.92;;;0.80;;
60312;SDS011;46158;52.850;6.970;2024-02-23T00:38:46;1.75;;;0.82;;
60312;SDS011;46158;52.850;6.970;2024-02-23T00:41:12;0.80;;;0.77;;
60312;SDS011;46158;52.850;6.970;2024-02-23T00:43:40;3.85;;;0.95;;
60312;SDS011;46158;52.850;6.970;2024-02-23T00:46:07;0.80;;;0.80;;
60312;SDS011;46158;52.850;6.970;2024-02-23T00:48:33;0.50;;;0.50;;
60312;SDS011;46158;52.850;6.970;2024-02-23T00:50:59;0.88;;;0.60;;
60312;SDS011;46158;52.850;6.970;2024-02-23T00:53:24;0.60;;;0.60;;
60312;SDS011;46158;52.850;6.970;2024-02-23T00:55:50;1.20;;;0.82;;
60312;SDS011;46158;52.850;6.970;2024-02-23T00:58:15;2.40;;;0.70;;
60312;SDS011;46158;52.850;6.970;2024-02-23T01:00:41;0.85;;;0.60;;
60312;SDS011;46158;52.850;6.970;2024-02-23T01:03:07;2.28;;;0.98;;
60312;SDS011;46158;52.850;6.970;2024-02-23T01:05:32;1.77;;;0.73;;
60312;SDS011;46158;52.850;6.970;2024-02-23T01:07:58;1.05;;;0.80;;
60312;SDS011;46158;52.850;6.970;2024-02-23T01:10:24;3.75;;;0.65;;
60312;SDS011;46158;52.850;6.970;2024-02-23T01:12:49;0.50;;;0.50;;
60312;SDS011;46158;52.850;6.970;2024-02-23T01:15:15;1.85;;;0.80;;
60312;SDS011;46158;52.850;6.970;2024-02-23T01:17:40;4.25;;;1.17;;
60312;SDS011;46158;52.850;6.970;2024-02-23T01:20:06;0.68;;;0.60;;
60312;SDS011;46158;52.850;6.970;2024-02-23T01:22:32;0.85;;;0.60;;
60312;SDS011;46158;52.850;6.970;2024-02-23T01:24:57;0.63;;;0.63;;
60312;SDS011;46158;52.850;6.970;2024-02-23T01:27:23;3.22;;;0.98;;
60312;SDS011;46158;52.850;6.970;2024-02-23T01:29:49;1.70;;;0.73;;
60312;SDS011;46158;52.850;6.970;2024-02-23T01:32:14;0.65;;;0.65;;
60312;SDS011;46158;52.850;6.970;2024-02-23T01:34:40;1.45;;;0.60;;
60312;SDS011;46158;52.850;6.970;2024-02-23T01:37:05;0.60;;;0.60;;
60312;SDS011;46158;52.850;6.970;2024-02-23T01:39:31;1.35;;;0.60;;
60312;SDS011;46158;52.850;6.970;2024-02-23T01:41:57;0.50;;;0.50;;
60312;SDS011;46158;52.850;6.970;2024-02-23T01:44:23;0.70;;;0.70;;
60312;SDS011;46158;52.850;6.970;2024-02-23T01:46:49;0.75;;;0.68;;
60312;SDS011;46158;52.850;6.970;2024-02-23T01:49:15;1.13;;;0.75;;
60312;SDS011;46158;52.850;6.970;2024-02-23T01:51:41;1.27;;;0.70;;
60312;SDS011;46158;52.850;6.970;2024-02-23T01:54:08;0.82;;;0.75;;
60312;SDS011;46158;52.850;6.970;2024-02-23T01:56:34;0.88;;;0.65;;
60312;SDS011;46158;52.850;6.970;2024-02-23T01:59:02;1.38;;;0.88;;
60312;SDS011;46158;52.850;6.970;2024-02-23T02:01:29;1.52;;;0.75;;
60312;SDS011;46158;52.850;6.970;2024-02-23T02:03:55;1.27;;;0.50;;
60312;SDS011;46158;52.850;6.970;2024-02-23T02:06:22;1.27;;;0.60;;
60312;SDS011;46158;52.850;6.970;2024-02-23T02:08:48;0.57;;;0.57;;
60312;SDS011;46158;52.850;6.970;2024-02-23T02:11:14;1.75;;;0.88;;
60312;SDS011;46158;52.850;6.970;2024-02-23T02:13:40;1.13;;;0.80;;
60312;SDS011;46158;52.850;6.970;2024-02-23T02:16:06;0.88;;;0.82;;
60312;SDS011;46158;52.850;6.970;2024-02-23T02:18:31;1.98;;;0.80;;
60312;SDS011;46158;52.850;6.970;2024-02-23T02:20:57;1.20;;;0.77;;
60312;SDS011;46158;52.850;6.970;2024-02-23T02:23:24;0.77;;;0.77;;
60312;SDS011;46158;52.850;6.970;2024-02-23T02:25:54;1.90;;;1.10;;
60312;SDS011;46158;52.850;6.970;2024-02-23T02:28:21;3.13;;;1.30;;
60312;SDS011;46158;52.850;6.970;2024-02-23T02:30:47;1.75;;;0.88;;
60312;SDS011;46158;52.850;6.970;2024-02-23T02:33:14;5.07;;;0.82;;
60312;SDS011;46158;52.850;6.970;2024-02-23T02:35:39;1.25;;;0.80;;
60312;SDS011;46158;52.850;6.970;2024-02-23T02:38:05;1.65;;;0.95;;
60312;SDS011;46158;52.850;6.970;2024-02-23T02:40:31;1.60;;;0.90;;
60312;SDS011;46158;52.850;6.970;2024-02-23T02:42:57;0.98;;;0.80;;
60312;SDS011;46158;52.850;6.970;2024-02-23T02:45:23;2.55;;;1.00;;
60312;SDS011;46158;52.850;6.970;2024-02-23T02:47:49;3.63;;;1.10;;
60312;SDS011;46158;52.850;6.970;2024-02-23T02:50:15;0.88;;;0.88;;
60312;SDS011;46158;52.850;6.970;2024-02-23T02:52:41;2.25;;;0.93;;
60312;SDS011;46158;52.850;6.970;2024-02-23T02:55:07;1.27;;;1.10;;
60312;SDS011;46158;52.850;6.970;2024-02-23T02:57:33;3.55;;;1.00;;
60312;SDS011;46158;52.850;6.970;2024-02-23T03:00:01;3.15;;;0.98;;
60312;SDS011;46158;52.850;6.970;2024-02-23T03:02:30;5.35;;;1.40;;
60312;SDS011;46158;52.850;6.970;2024-02-23T03:05:00;1.27;;;0.88;;
60312;SDS011;46158;52.850;6.970;2024-02-23T03:07:25;3.92;;;1.20;;
60312;SDS011;46158;52.850;6.970;2024-02-23T03:09:51;2.42;;;1.20;;
60312;SDS011;46158;52.850;6.970;2024-02-23T03:12:17;4.68;;;1.30;;
60312;SDS011;46158;52.850;6.970;2024-02-23T03:14:43;4.70;;;1.13;;
60312;SDS011;46158;52.850;6.970;2024-02-23T03:17:09;4.72;;;1.20;;
60312;SDS011;46158;52.850;6.970;2024-02-23T03:19:35;2.05;;;1.17;;
60312;SDS011;46158;52.850;6.970;2024-02-23T03:22:01;1.55;;;1.02;;
60312;SDS011;46158;52.850;6.970;2024-02-23T03:24:27;1.38;;;0.90;;
60312;SDS011;46158;52.850;6.970;2024-02-23T03:26:52;2.88;;;1.25;;
60312;SDS011;46158;52.850;6.970;2024-02-23T03:29:18;4.55;;;1.23;;
60312;SDS011;46158;52.850;6.970;2024-02-23T03:31:44;4.63;;;1.50;;
60312;SDS011;46158;52.850;6.970;2024-02-23T03:34:09;5.00;;;1.40;;
60312;SDS011;46158;52.850;6.970;2024-02-23T03:36:36;4.05;;;1.25;;
60312;SDS011;46158;52.850;6.970;2024-02-23T03:39:02;4.32;;;1.35;;
60312;SDS011;46158;52.850;6.970;2024-02-23T03:41:27;5.68;;;1.50;;
60312;SDS011;46158;52.850;6.970;2024-02-23T03:43:53;4.97;;;1.40;;
60312;SDS011;46158;52.850;6.970;2024-02-23T03:46:19;3.83;;;1.42;;
60312;SDS011;46158;52.850;6.970;2024-02-23T03:48:45;3.00;;;1.33;;
60312;SDS011;46158;52.850;6.970;2024-02-23T03:51:11;1.75;;;1.20;;
60312;SDS011;46158;52.850;6.970;2024-02-23T03:53:36;3.83;;;1.13;;
60312;SDS011;46158;52.850;6.970;2024-02-23T03:56:02;2.17;;;1.13;;
60312;SDS011;46158;52.850;6.970;2024-02-23T03:58:28;4.15;;;1.27;;
60312;SDS011;46158;52.850;6.970;2024-02-23T04:00:53;4.82;;;1.45;;
60312;SDS011;46158;52.850;6.970;2024-02-23T04:03:19;2.67;;;1.17;;
60312;SDS011;46158;52.850;6.970;2024-02-23T04:05:45;3.38;;;1.23;;
60312;SDS011;46158;52.850;6.970;2024-02-23T04:08:11;2.80;;;1.13;;
60312;SDS011;46158;52.850;6.970;2024-02-23T04:10:36;4.93;;;1.42;;
60312;SDS011;46158;52.850;6.970;2024-02-23T04:13:02;1.85;;;1.05;;
60312;SDS011;46158;52.850;6.970;2024-02-23T04:15:28;4.32;;;1.23;;
60312;SDS011;46158;52.850;6.970;2024-02-23T04:17:53;4.45;;;1.33;;
60312;SDS011;46158;52.850;6.970;2024-02-23T04:20:19;2.95;;;1.00;;
60312;SDS011;46158;52.850;6.970;2024-02-23T04:22:45;6.75;;;1.42;;
60312;SDS011;46158;52.850;6.970;2024-02-23T04:25:11;3.45;;;1.33;;
60312;SDS011;46158;52.850;6.970;2024-02-23T04:27:37;5.28;;;1.38;;
60312;SDS011;46158;52.850;6.970;2024-02-23T04:30:03;1.67;;;1.00;;
60312;SDS011;46158;52.850;6.970;2024-02-23T04:32:29;3.03;;;1.35;;
60312;SDS011;46158;52.850;6.970;2024-02-23T04:34:55;4.35;;;1.25;;
60312;SDS011;46158;52.850;6.970;2024-02-23T04:37:21;2.05;;;1.23;;
60312;SDS011;46158;52.850;6.970;2024-02-23T04:39:47;2.75;;;1.40;;
60312;SDS011;46158;52.850;6.970;2024-02-23T04:42:12;5.22;;;1.50;;
60312;SDS011;46158;52.850;6.970;2024-02-23T04:44:38;3.13;;;1.00;;
60312;SDS011;46158;52.850;6.970;2024-02-23T04:47:05;3.67;;;1.38;;
60312;SDS011;46158;52.850;6.970;2024-02-23T04:49:31;4.50;;;1.40;;
60312;SDS011;46158;52.850;6.970;2024-02-23T04:51:57;3.20;;;1.02;;
60312;SDS011;46158;52.850;6.970;2024-02-23T04:54:23;2.40;;;1.17;;
60312;SDS011;46158;52.850;6.970;2024-02-23T04:56:48;1.67;;;1.10;;
60312;SDS011;46158;52.850;6.970;2024-02-23T04:59:15;2.28;;;1.20;;
60312;SDS011;46158;52.850;6.970;2024-02-23T05:01:41;3.08;;;1.13;;
60312;SDS011;46158;52.850;6.970;2024-02-23T05:04:07;4.80;;;1.45;;
60312;SDS011;46158;52.850;6.970;2024-02-23T05:06:33;2.33;;;1.23;;
60312;SDS011;46158;52.850;6.970;2024-02-23T05:09:00;4.13;;;1.33;;
60312;SDS011;46158;52.850;6.970;2024-02-23T05:11:26;2.95;;;1.50;;
60312;SDS011;46158;52.850;6.970;2024-02-23T05:13:52;4.13;;;1.48;;
60312;SDS011;46158;52.850;6.970;2024-02-23T05:16:18;3.67;;;1.33;;
60312;SDS011;46158;52.850;6.970;2024-02-23T05:18:44;3.30;;;1.10;;
60312;SDS011;46158;52.850;6.970;2024-02-23T05:21:11;5.78;;;1.45;;
60312;SDS011;46158;52.850;6.970;2024-02-23T05:23:39;2.92;;;1.30;;
60312;SDS011;46158;52.850;6.970;2024-02-23T05:26:04;1.90;;;1.02;;
60312;SDS011;46158;52.850;6.970;2024-02-23T05:28:31;3.33;;;1.38;;
60312;SDS011;46158;52.850;6.970;2024-02-23T05:30:57;3.17;;;1.35;;
60312;SDS011;46158;52.850;6.970;2024-02-23T05:33:22;4.10;;;1.40;;
60312;SDS011;46158;52.850;6.970;2024-02-23T05:35:49;2.60;;;1.10;;
60312;SDS011;46158;52.850;6.970;2024-02-23T05:38:15;4.80;;;1.75;;
60312;SDS011;46158;52.850;6.970;2024-02-23T05:40:41;4.30;;;1.50;;
60312;SDS011;46158;52.850;6.970;2024-02-23T05:43:07;5.93;;;1.83;;
60312;SDS011;46158;52.850;6.970;2024-02-23T05:45:33;4.30;;;1.55;;
60312;SDS011;46158;52.850;6.970;2024-02-23T05:47:58;10.10;;;2.17;;
60312;SDS011;46158;52.850;6.970;2024-02-23T05:50:24;6.30;;;1.90;;
60312;SDS011;46158;52.850;6.970;2024-02-23T05:52:50;11.05;;;2.30;;
60312;SDS011;46158;52.850;6.970;2024-02-23T05:55:15;8.93;;;2.20;;
60312;SDS011;46158;52.850;6.970;2024-02-23T05:57:42;8.85;;;1.90;;
60312;SDS011;46158;52.850;6.970;2024-02-23T06:00:08;9.63;;;1.80;;
60312;SDS011;46158;52.850;6.970;2024-02-23T06:02:34;6.82;;;1.80;;
60312;SDS011;46158;52.850;6.970;2024-02-23T06:04:59;4.28;;;2.22;;
60312;SDS011;46158;52.850;6.970;2024-02-23T06:07:25;4.20;;;1.88;;
60312;SDS011;46158;52.850;6.970;2024-02-23T06:09:57;6.30;;;1.73;;
60312;SDS011;46158;52.850;6.970;2024-02-23T06:12:23;8.32;;;2.05;;
60312;SDS011;46158;52.850;6.970;2024-02-23T06:14:50;5.45;;;1.80;;
60312;SDS011;46158;52.850;6.970;2024-02-23T06:17:16;9.43;;;1.80;;
60312;SDS011;46158;52.850;6.970;2024-02-23T06:19:42;7.45;;;2.05;;
60312;SDS011;46158;52.850;6.970;2024-02-23T06:22:07;6.55;;;2.00;;
60312;SDS011;46158;52.850;6.970;2024-02-23T06:24:35;8.77;;;2.20;;
60312;SDS011;46158;52.850;6.970;2024-02-23T06:27:00;9.02;;;2.20;;
60312;SDS011;46158;52.850;6.970;2024-02-23T06:29:28;8.20;;;2.00;;
60312;SDS011;46158;52.850;6.970;2024-02-23T06:31:54;9.45;;;2.20;;
60312;SDS011;46158;52.850;6.970;2024-02-23T06:34:20;7.95;;;1.70;;
60312;SDS011;46158;52.850;6.970;2024-02-23T06:36:46;9.13;;;2.08;;
60312;SDS011;46158;52.850;6.970;2024-02-23T06:39:12;5.53;;;2.13;;
60312;SDS011;46158;52.850;6.970;2024-02-23T06:41:38;5.32;;;1.95;;
60312;SDS011;46158;52.850;6.970;2024-02-23T06:44:04;6.20;;;1.75;;
60312;SDS011;46158;52.850;6.970;2024-02-23T06:46:30;6.50;;;2.10;;
60312;SDS011;46158;52.850;6.970;2024-02-23T06:48:55;10.25;;;2.08;;
60312;SDS011;46158;52.850;6.970;2024-02-23T06:51:21;9.35;;;2.22;;
60312;SDS011;46158;52.850;6.970;2024-02-23T06:53:47;6.32;;;2.00;;
60312;SDS011;46158;52.850;6.970;2024-02-23T06:56:12;6.30;;;2.00;;
60312;SDS011;46158;52.850;6.970;2024-02-23T06:58:38;5.47;;;2.03;;
60312;SDS011;46158;52.850;6.970;2024-02-23T07:01:04;5.10;;;1.80;;
60312;SDS011;46158;52.850;6.970;2024-02-23T07:03:32;8.10;;;2.40;;
60312;SDS011;46158;52.850;6.970;2024-02-23T07:05:58;7.35;;;2.17;;
60312;SDS011;46158;52.850;6.970;2024-02-23T07:08:23;7.78;;;2.05;;
60312;SDS011;46158;52.850;6.970;2024-02-23T07:10:49;10.10;;;2.17;;
60312;SDS011;46158;52.850;6.970;2024-02-23T07:13:15;6.35;;;2.13;;
60312;SDS011;46158;52.850;6.970;2024-02-23T07:15:42;10.15;;;2.47;;
60312;SDS011;46158;52.850;6.970;2024-02-23T07:18:07;9.98;;;2.20;;
60312;SDS011;46158;52.850;6.970;2024-02-23T07:20:33;8.50;;;2.40;;
60312;SDS011;46158;52.850;6.970;2024-02-23T07:23:00;6.35;;;2.00;;
60312;SDS011;46158;52.850;6.970;2024-02-23T07:25:26;9.05;;;2.42;;
60312;SDS011;46158;52.850;6.970;2024-02-23T07:27:51;8.82;;;2.20;;
60312;SDS011;46158;52.850;6.970;2024-02-23T07:30:17;5.85;;;2.20;;
60312;SDS011;46158;52.850;6.970;2024-02-23T07:32:43;8.15;;;2.22;;
60312;SDS011;46158;52.850;6.970;2024-02-23T07:35:10;6.00;;;2.00;;
60312;SDS011;46158;52.850;6.970;2024-02-23T07:37:36;9.48;;;2.22;;
60312;SDS011;46158;52.850;6.970;2024-02-23T07:40:02;7.63;;;2.20;;
60312;SDS011;46158;52.850;6.970;2024-02-23T07:42:29;3.65;;;2.05;;
60312;SDS011;46158;52.850;6.970;2024-02-23T07:44:56;4.38;;;1.90;;
60312;SDS011;46158;52.850;6.970;2024-02-23T07:47:23;5.50;;;1.95;;
60312;SDS011;46158;52.850;6.970;2024-02-23T07:49:51;6.55;;;2.50;;
60312;SDS011;46158;52.850;6.970;2024-02-23T07:52:17;45.30;;;5.68;;
60312;SDS011;46158;52.850;6.970;2024-02-23T07:54:42;31.33;;;4.85;;
60312;SDS011;46158;52.850;6.970;2024-02-23T07:57:08;16.00;;;2.60;;
60312;SDS011;46158;52.850;6.970;2024-02-23T07:59:34;15.10;;;2.88;;
60312;SDS011;46158;52.850;6.970;2024-02-23T08:02:00;10.23;;;2.53;;
60312;SDS011;46158;52.850;6.970;2024-02-23T08:04:25;12.02;;;2.53;;
60312;SDS011;46158;52.850;6.970;2024-02-23T08:06:51;12.85;;;2.47;;
60312;SDS011;46158;52.850;6.970;2024-02-23T08:09:18;9.30;;;2.30;;
60312;SDS011;46158;52.850;6.970;2024-02-23T08:11:43;9.27;;;2.35;;
60312;SDS011;46158;52.850;6.970;2024-02-23T08:14:10;8.73;;;2.30;;
60312;SDS011;46158;52.850;6.970;2024-02-23T08:16:37;12.65;;;2.42;;
60312;SDS011;46158;52.850;6.970;2024-02-23T08:19:03;11.13;;;2.30;;
60312;SDS011;46158;52.850;6.970;2024-02-23T08:21:28;8.35;;;2.30;;
60312;SDS011;46158;52.850;6.970;2024-02-23T08:23:54;12.60;;;2.28;;
60312;SDS011;46158;52.850;6.970;2024-02-23T08:26:19;11.10;;;2.33;;
60312;SDS011;46158;52.850;6.970;2024-02-23T08:28:45;10.77;;;2.50;;
60312;SDS011;46158;52.850;6.970;2024-02-23T08:31:11;10.85;;;1.95;;
60312;SDS011;46158;52.850;6.970;2024-02-23T08:33:36;7.82;;;1.90;;
60312;SDS011;46158;52.850;6.970;2024-02-23T08:36:03;10.50;;;2.45;;
60312;SDS011;46158;52.850;6.970;2024-02-23T08:38:30;7.07;;;1.90;;
60312;SDS011;46158;52.850;6.970;2024-02-23T08:40:57;8.68;;;2.03;;
60312;SDS011;46158;52.850;6.970;2024-02-23T08:43:23;9.25;;;2.05;;
60312;SDS011;46158;52.850;6.970;2024-02-23T08:45:49;8.15;;;2.10;;
60312;SDS011;46158;52.850;6.970;2024-02-23T08:48:15;8.52;;;2.28;;
60312;SDS011;46158;52.850;6.970;2024-02-23T08:50:40;7.00;;;2.10;;
60312;SDS011;46158;52.850;6.970;2024-02-23T08:53:06;10.70;;;2.00;;
60312;SDS011;46158;52.850;6.970;2024-02-23T08:55:32;7.40;;;1.92;;
60312;SDS011;46158;52.850;6.970;2024-02-23T08:57:58;7.75;;;1.98;;
60312;SDS011;46158;52.850;6.970;2024-02-23T09:00:25;6.63;;;2.00;;
60312;SDS011;46158;52.850;6.970;2024-02-23T09:02:50;12.60;;;2.35;;
60312;SDS011;46158;52.850;6.970;2024-02-23T09:05:16;11.75;;;2.25;;
60312;SDS011;46158;52.850;6.970;2024-02-23T09:07:42;13.60;;;2.10;;
60312;SDS011;46158;52.850;6.970;2024-02-23T09:10:08;9.25;;;2.00;;
60312;SDS011;46158;52.850;6.970;2024-02-23T09:12:34;10.85;;;2.10;;
60312;SDS011;46158;52.850;6.970;2024-02-23T09:15:00;9.18;;;2.50;;
60312;SDS011;46158;52.850;6.970;2024-02-23T09:17:25;12.95;;;1.83;;
60312;SDS011;46158;52.850;6.970;2024-02-23T09:19:51;9.15;;;2.20;;
60312;SDS011;46158;52.850;6.970;2024-02-23T09:22:17;9.40;;;2.05;;
60312;SDS011;46158;52.850;6.970;2024-02-23T09:24:43;7.82;;;2.10;;
60312;SDS011;46158;52.850;6.970;2024-02-23T09:27:09;11.77;;;2.17;;
60312;SDS011;46158;52.850;6.970;2024-02-23T09:29:34;14.20;;;2.40;;
60312;SDS011;46158;52.850;6.970;2024-02-23T09:32:00;7.07;;;1.90;;
60312;SDS011;46158;52.850;6.970;2024-02-23T09:34:26;13.30;;;2.30;;
60312;SDS011;46158;52.850;6.970;2024-02-23T09:36:52;5.45;;;1.80;;
60312;SDS011;46158;52.850;6.970;2024-02-23T09:39:17;8.73;;;1.63;;
60312;SDS011;46158;52.850;6.970;2024-02-23T09:41:45;8.35;;;2.00;;
60312;SDS011;46158;52.850;6.970;2024-02-23T09:44:14;8.40;;;2.00;;
60312;SDS011;46158;52.850;6.970;2024-02-23T09:46:41;7.45;;;1.70;;
60312;SDS011;46158;52.850;6.970;2024-02-23T09:49:10;10.05;;;1.83;;
60312;SDS011;46158;52.850;6.970;2024-02-23T09:51:37;9.85;;;2.38;;
60312;SDS011;46158;52.850;6.970;2024-02-23T09:54:04;7.03;;;1.85;;
60312;SDS011;46158;52.850;6.970;2024-02-23T09:56:30;6.13;;;1.65;;
60312;SDS011;46158;52.850;6.970;2024-02-23T09:58:59;12.05;;;2.17;;
60312;SDS011;46158;52.850;6.970;2024-02-23T10:01:27;8.93;;;2.03;;
60312;SDS011;46158;52.850;6.970;2024-02-23T10:03:56;8.02;;;2.03;;
60312;SDS011;46158;52.850;6.970;2024-02-23T10:06:23;9.02;;;1.95;;
60312;SDS011;46158;52.850;6.970;2024-02-23T10:08:52;9.18;;;1.80;;
60312;SDS011;46158;52.850;6.970;2024-02-23T10:11:22;7.25;;;1.52;;
60312;SDS011;46158;52.850;6.970;2024-02-23T10:13:48;5.80;;;1.60;;
60312;SDS011;46158;52.850;6.970;2024-02-23T10:16:15;8.65;;;1.80;;
60312;SDS011;46158;52.850;6.970;2024-02-23T10:18:41;12.02;;;1.92;;
60312;SDS011;46158;52.850;6.970;2024-02-23T10:21:07;9.05;;;1.88;;
60312;SDS011;46158;52.850;6.970;2024-02-23T10:23:32;6.20;;;1.98;;
60312;SDS011;46158;52.850;6.970;2024-02-23T10:25:58;7.72;;;1.80;;
60312;SDS011;46158;52.850;6.970;2024-02-23T10:28:24;6.55;;;1.50;;
60312;SDS011;46158;52.850;6.970;2024-02-23T10:30:49;3.40;;;1.55;;
60312;SDS011;46158;52.850;6.970;2024-02-23T10:33:15;7.40;;;1.70;;
60312;SDS011;46158;52.850;6.970;2024-02-23T10:35:46;6.55;;;1.73;;
60312;SDS011;46158;52.850;6.970;2024-02-23T10:38:12;8.00;;;1.60;;
60312;SDS011;46158;52.850;6.970;2024-02-23T10:40:43;6.32;;;1.45;;
60312;SDS011;46158;52.850;6.970;2024-02-23T10:43:12;4.68;;;1.30;;
60312;SDS011;46158;52.850;6.970;2024-02-23T10:45:41;7.28;;;1.70;;
60312;SDS011;46158;52.850;6.970;2024-02-23T10:48:08;4.50;;;1.40;;
60312;SDS011;46158;52.850;6.970;2024-02-23T10:50:35;2.95;;;1.52;;
60312;SDS011;46158;52.850;6.970;2024-02-23T10:53:02;6.05;;;1.85;;
60312;SDS011;46158;52.850;6.970;2024-02-23T10:55:33;5.55;;;1.52;;
60312;SDS011;46158;52.850;6.970;2024-02-23T10:58:02;6.55;;;1.65;;
60312;SDS011;46158;52.850;6.970;2024-02-23T11:00:28;7.93;;;1.42;;
60312;SDS011;46158;52.850;6.970;2024-02-23T11:02:54;4.65;;;1.35;;
60312;SDS011;46158;52.850;6.970;2024-02-23T11:05:21;7.70;;;1.75;;
60312;SDS011;46158;52.850;6.970;2024-02-23T11:07:48;5.53;;;1.25;;
60312;SDS011;46158;52.850;6.970;2024-02-23T11:10:17;8.02;;;1.48;;
60312;SDS011;46158;52.850;6.970;2024-02-23T11:12:44;4.43;;;1.50;;
60312;SDS011;46158;52.850;6.970;2024-02-23T11:15:09;4.60;;;1.30;;
60312;SDS011;46158;52.850;6.970;2024-02-23T11:17:55;8.35;;;1.83;;
60312;SDS011;46158;52.850;6.970;2024-02-23T11:20:21;4.80;;;1.40;;
60312;SDS011;46158;52.850;6.970;2024-02-23T11:22:53;6.60;;;1.70;;
60312;SDS011;46158;52.850;6.970;2024-02-23T11:25:19;4.68;;;1.73;;
60312;SDS011;46158;52.850;6.970;2024-02-23T11:27:48;5.93;;;1.48;;
60312;SDS011;46158;52.850;6.970;2024-02-23T11:30:16;5.60;;;1.60;;
60312;SDS011;46158;52.850;6.970;2024-02-23T11:32:43;6.78;;;1.63;;
60312;SDS011;46158;52.850;6.970;2024-02-23T11:35:11;3.85;;;1.83;;
60312;SDS011;46158;52.850;6.970;2024-02-23T11:40:33;6.03;;;1.40;;
60312;SDS011;46158;52.850;6.970;2024-02-23T11:42:59;5.47;;;1.80;;
60312;SDS011;46158;52.850;6.970;2024-02-23T11:45:27;4.25;;;1.63;;
60312;SDS011;46158;52.850;6.970;2024-02-23T11:47:53;5.63;;;1.75;;
60312;SDS011;46158;52.850;6.970;2024-02-23T11:50:19;9.23;;;1.65;;
60312;SDS011;46158;52.850;6.970;2024-02-23T11:52:46;5.60;;;1.50;;
60312;SDS011;46158;52.850;6.970;2024-02-23T11:55:12;4.00;;;1.40;;
60312;SDS011;46158;52.850;6.970;2024-02-23T11:57:42;2.28;;;1.15;;
60312;SDS011;46158;52.850;6.970;2024-02-23T12:00:10;5.55;;;1.50;;
60312;SDS011;46158;52.850;6.970;2024-02-23T12:02:36;7.38;;;1.48;;
60312;SDS011;46158;52.850;6.970;2024-02-23T12:05:02;3.88;;;1.55;;
60312;SDS011;46158;52.850;6.970;2024-02-23T12:07:31;4.88;;;1.15;;
60312;SDS011;46158;52.850;6.970;2024-02-23T12:09:57;7.10;;;1.85;;
60312;SDS011;46158;52.850;6.970;2024-02-23T12:12:25;5.88;;;1.42;;
60312;SDS011;46158;52.850;6.970;2024-02-23T12:14:51;8.90;;;1.60;;
60312;SDS011;46158;52.850;6.970;2024-02-23T12:17:16;3.72;;;1.52;;
60312;SDS011;46158;52.850;6.970;2024-02-23T12:19:42;5.68;;;1.45;;
60312;SDS011;46158;52.850;6.970;2024-02-23T12:22:07;6.28;;;1.42;;
60312;SDS011;46158;52.850;6.970;2024-02-23T12:24:35;3.97;;;1.50;;
60312;SDS011;46158;52.850;6.970;2024-02-23T12:27:01;3.72;;;1.40;;
60312;SDS011;46158;52.850;6.970;2024-02-23T12:29:27;6.40;;;1.60;;
60312;SDS011;46158;52.850;6.970;2024-02-23T12:32:04;3.50;;;1.42;;
60312;SDS011;46158;52.850;6.970;2024-02-23T12:34:30;6.80;;;1.67;;
60312;SDS011;46158;52.850;6.970;2024-02-23T12:36:56;5.32;;;1.52;;
60312;SDS011;46158;52.850;6.970;2024-02-23T12:39:21;4.72;;;1.38;;
60312;SDS011;46158;52.850;6.970;2024-02-23T12:41:47;5.95;;;1.60;;
60312;SDS011;46158;52.850;6.970;2024-02-23T12:44:13;5.05;;;1.48;;
60312;SDS011;46158;52.850;6.970;2024-02-23T12:46:39;4.38;;;1.40;;
60312;SDS011;46158;52.850;6.970;2024-02-23T12:49:05;6.40;;;1.40;;
60312;SDS011;46158;52.850;6.970;2024-02-23T12:51:30;3.80;;;1.30;;
60312;SDS011;46158;52.850;6.970;2024-02-23T12:53:56;4.30;;;1.48;;
60312;SDS011;46158;52.850;6.970;2024-02-23T12:56:22;4.10;;;1.60;;
60312;SDS011;46158;52.850;6.970;2024-02-23T12:58:48;5.03;;;1.42;;
60312;SDS011;46158;52.850;6.970;2024-02-23T13:01:13;3.97;;;1.42;;
60312;SDS011;46158;52.850;6.970;2024-02-23T13:03:39;3.10;;;1.52;;
60312;SDS011;46158;52.850;6.970;2024-02-23T13:06:06;5.07;;;1.40;;
60312;SDS011;46158;52.850;6.970;2024-02-23T13:08:32;4.65;;;1.48;;
60312;SDS011;46158;52.850;6.970;2024-02-23T13:10:59;6.18;;;1.48;;
60312;SDS011;46158;52.850;6.970;2024-02-23T13:13:25;3.70;;;1.25;;
60312;SDS011;46158;52.850;6.970;2024-02-23T13:15:51;5.15;;;1.60;;
60312;SDS011;46158;52.850;6.970;2024-02-23T13:18:18;5.88;;;1.50;;
60312;SDS011;46158;52.850;6.970;2024-02-23T13:20:44;4.50;;;2.00;;
60312;SDS011;46158;52.850;6.970;2024-02-23T13:23:10;4.50;;;1.48;;
60312;SDS011;46158;52.850;6.970;2024-02-23T13:25:37;4.57;;;1.42;;
60312;SDS011;46158;52.850;6.970;2024-02-23T13:28:04;6.57;;;1.88;;
60312;SDS011;46158;52.850;6.970;2024-02-23T13:30:30;3.78;;;1.50;;
60312;SDS011;46158;52.850;6.970;2024-02-23T13:32:56;3.78;;;1.38;;
60312;SDS011;46158;52.850;6.970;2024-02-23T13:35:22;5.68;;;1.58;;
60312;SDS011;46158;52.850;6.970;2024-02-23T13:37:48;6.18;;;1.52;;
60312;SDS011;46158;52.850;6.970;2024-02-23T13:40:14;4.15;;;1.35;;
60312;SDS011;46158;52.850;6.970;2024-02-23T13:42:39;5.57;;;1.45;;
60312;SDS011;46158;52.850;6.970;2024-02-23T13:45:08;3.35;;;1.38;;
60312;SDS011;46158;52.850;6.970;2024-02-23T13:47:34;5.15;;;1.40;;
60312;SDS011;46158;52.850;6.970;2024-02-23T13:50:01;5.25;;;1.45;;
60312;SDS011;46158;52.850;6.970;2024-02-23T13:52:27;5.82;;;1.63;;
60312;SDS011;46158;52.850;6.970;2024-02-23T13:54:53;5.80;;;1.25;;
60312;SDS011;46158;52.850;6.970;2024-02-23T13:57:19;5.40;;;1.50;;
60312;SDS011;46158;52.850;6.970;2024-02-23T13:59:45;6.88;;;1.60;;
60312;SDS011;46158;52.850;6.970;2024-02-23T14:02:11;5.75;;;1.60;;
60312;SDS011;46158;52.850;6.970;2024-02-23T14:04:37;5.18;;;1.60;;
60312;SDS011;46158;52.850;6.970;2024-02-23T14:07:02;7.85;;;1.70;;
60312;SDS011;46158;52.850;6.970;2024-02-23T14:09:29;7.82;;;1.55;;
60312;SDS011;46158;52.850;6.970;2024-02-23T14:11:55;8.10;;;1.58;;
60312;SDS011;46158;52.850;6.970;2024-02-23T14:14:21;6.82;;;2.08;;
60312;SDS011;46158;52.850;6.970;2024-02-23T14:16:47;4.07;;;1.50;;
60312;SDS011;46158;52.850;6.970;2024-02-23T14:19:13;4.30;;;1.45;;
60312;SDS011;46158;52.850;6.970;2024-02-23T14:21:39;6.85;;;1.60;;
60312;SDS011;46158;52.850;6.970;2024-02-23T14:24:04;3.90;;;1.60;;
60312;SDS011;46158;52.850;6.970;2024-02-23T14:26:30;5.32;;;1.45;;
60312;SDS011;46158;52.850;6.970;2024-02-23T14:28:56;6.80;;;1.60;;
60312;SDS011;46158;52.850;6.970;2024-02-23T14:31:22;6.47;;;1.55;;
60312;SDS011;46158;52.850;6.970;2024-02-23T14:33:47;6.28;;;1.67;;
60312;SDS011;46158;52.850;6.970;2024-02-23T14:36:16;5.60;;;1.48;;
60312;SDS011;46158;52.850;6.970;2024-02-23T14:38:42;3.50;;;1.27;;
60312;SDS011;46158;52.850;6.970;2024-02-23T14:41:08;3.20;;;1.23;;
60312;SDS011;46158;52.850;6.970;2024-02-23T14:43:35;5.10;;;1.67;;